• Join FlightAware (Why Join?)
  • Login
  • US Flag 
12:23PM EDT


 

Airport Tracker/Info


-or-


 

Live Flight TrackerFlight Track Log ✈ CTL311 ✈ 01-Jul-2013 ✈ KJXN - KEYE

Flight Track Log - Related Links

Times and Time Zones

All times are in EDT time to prevent confusion due to time zone crossing. See the CTL311 flight status page for this flight to view local times or setup timezone preferences in your user account.

Time Position Orientation Groundspeed Altitude Reporting Facility
EDT Latitude Longitude Course Direction KTS MPH feet Rate Location/Type
06:33PM 42.2033 -84.4947 213° Southwest 192 221 2,500  Level Chicago Center
06:34PM 42.1542 -84.5339 211° Southwest 172 198 3,300 600 Climbing Chicago Center
06:35PM 42.1122 -84.5694 212° Southwest 175 201 3,800 540 Climbing Chicago Center
06:36PM 42.0703 -84.6028 211° Southwest 176 203 4,500 480 Climbing Chicago Center
06:37PM 42.0283 -84.6339 209° Southwest 174 200 4,900 540 Climbing Chicago Center
06:38PM 41.9974 -84.6451 213° Southwest  Level FlightAware Approximate
06:38PM 41.9839 -84.6689 210° Southwest 179 206 5,700  Level Chicago Center
06:39PM 41.9564 -84.6803 213° Southwest  Level FlightAware Approximate
06:39PM 41.9436 -84.7100 217° Southwest 181 208 5,900  Level Chicago Center
06:40PM 41.8906 -84.7544 212° Southwest 186 214 6,000 60 Climbing Chicago Center
06:41PM 41.8447 -84.7867 208° Southwest 187 215 6,100  Climbing Chicago Center
06:43PM 41.7981 -84.8178 206° Southwest 186 214 6,000 -60 Descending Chicago Center
06:44PM 41.7522 -84.8514 209° Southwest 187 215 6,000  Level Chicago Center
06:45PM 41.7089 -84.8878 212° Southwest 185 213 6,000  Level Chicago Center
06:46PM 41.6647 -84.9256 213° Southwest 187 215 6,000  Level Chicago Center
06:47PM 41.6100 -84.9683 210° Southwest 188 216 6,000  Level Chicago Center
06:48PM 41.5642 -85.0036 210° Southwest 189 217 6,100  Climbing Chicago Center
06:49PM 41.5203 -85.0408 212° Southwest 188 216 6,100  Level Chicago Center
06:50PM 41.4753 -85.0775 211° Southwest 188 216 6,100  Level Chicago Center
06:51PM 41.4297 -85.1122 210° Southwest 188 216 6,100  Level Chicago Center
06:52PM 41.3842 -85.1475 210° Southwest 188 216 6,100  Level Chicago Center
06:53PM 41.3389 -85.1814 209° Southwest 187 215 6,100  Level Chicago Center
06:54PM 41.2853 -85.2219 210° Southwest 186 214 6,100  Level Chicago Center
06:55PM 41.2414 -85.2594 213° Southwest 186 214 6,100 -60 Level Chicago Center
06:56PM 41.1972 -85.2967 212° Southwest 186 214 6,000  Descending Chicago Center
06:57PM 41.1525 -85.3281 208° Southwest 185 213 6,100  Climbing Chicago Center
06:58PM 41.1075 -85.3600 208° Southwest 184 212 6,100  Level Chicago Center
06:59PM 41.0642 -85.3939 211° Southwest 182 209 6,100  Level Chicago Center
07:00PM 41.0125 -85.4331 210° Southwest 178 205 6,100  Level Chicago Center
07:01PM 40.9686 -85.4661 210° Southwest 179 206 6,100  Level Chicago Center
07:02PM 40.9256 -85.4997 211° Southwest 179 206 6,100 -60 Level Chicago Center
07:03PM 40.8822 -85.5325 210° Southwest 179 206 6,000 -60 Descending Chicago Center
07:04PM 40.8525 -85.5614 216° Southwest 183 211 6,000  Level Chicago Center
07:05PM 40.8053 -85.6033 214° Southwest 181 208 6,000 -60 Level Chicago Center
07:06PM 40.7628 -85.6397 213° Southwest 188 216 5,900  Descending Chicago Center
07:07PM 40.7158 -85.6786 212° Southwest 185 213 6,000 -180 Climbing Chicago Center
07:08PM 40.6731 -85.7119 211° Southwest 187 215 5,600 -480 Descending Chicago Center
07:09PM 40.6219 -85.7506 210° Southwest 199 229 5,100 -300 Descending Chicago Center
07:10PM 40.5731 -85.7839 207° Southwest 194 223 5,000 -60 Descending Chicago Center
07:11PM 40.5303 -85.8172 211° Southwest 185 213 5,000  Level Chicago Center
07:12PM 40.4814 -85.8475 205° Southwest 185 213 5,000  Level Chicago Center
07:14PM 40.4161 -85.8908 207° Southwest 187 215 5,100  Climbing Chicago Center
07:15PM 40.3719 -85.9231 209° Southwest 184 212 5,000 -60 Descending Chicago Center
07:16PM 40.3267 -85.9578 210° Southwest 186 214 5,000  Level Chicago Center
07:17PM 40.2825 -85.9889 208° Southwest 183 211 5,000  Level Chicago Center
07:18PM 40.2294 -86.0308 211° Southwest 184 212 5,000 -120 Level Chicago Center
07:19PM 40.1847 -86.0614 208° Southwest 182 209 4,800 -540 Descending Chicago Center
07:20PM 40.1364 -86.0942 207° Southwest 188 216 4,000 -540 Descending Chicago Center
07:20PM 40.1050 -86.1128 204° Southwest 194 223 4,000 -360 Level Indianapolis Center
07:21PM 40.0564 -86.1425 205° Southwest 194 223 3,500 -480 Descending Indianapolis Center
07:22PM 40.0122 -86.1714 207° Southwest 195 224 3,100 -420 Descending Indianapolis Center